Time;durP1;ratioP1;P1;durP2;ratioP2;P2;SDS_P1;SDS_P2;PMS_P1;PMS_P2;Temp;Humidity;BMP_temperature;BMP_pressure;BME280_temperature;BME280_humidity;BME280_pressure;Samples;Min_cycle;Max_cycle;Signal;HPM_P1;HPM_P2
2023/01/05 00:02:14;;;;;;;1.03;1.03;;;14.10;41.60;;;;;;10453064;28;20239;-67
2023/01/05 00:07:27;;;;;;;1.17;0.90;;;14.10;41.50;;;;;;10439246;28;20241;-67
2023/01/05 00:23:12;;;;;;;0.80;0.80;;;14.10;41.60;;;;;;10445437;28;20229;-67
2023/01/05 00:28:15;;;;;;;0.90;0.90;;;14.10;41.60;;;;;;10448401;28;20821;-67
2023/01/05 00:33:18;;;;;;;0.80;0.80;;;14.10;41.70;;;;;;10447939;28;20236;-66
2023/01/05 00:38:23;;;;;;;0.80;0.80;;;14.10;41.70;;;;;;10446331;28;20243;-67
2023/01/05 00:43:26;;;;;;;0.90;0.90;;;14.10;41.70;;;;;;10448389;28;20252;-67
2023/01/05 00:48:29;;;;;;;0.80;0.80;;;14.10;41.70;;;;;;10462163;28;20724;-72
2023/01/05 00:53:33;;;;;;;0.80;0.80;;;14.10;41.60;;;;;;10463142;28;20240;-72
2023/01/05 00:58:36;;;;;;;0.70;0.70;;;14.20;41.80;;;;;;10460189;28;20239;-72
2023/01/05 01:03:40;;;;;;;1.17;0.90;;;14.20;41.70;;;;;;10475459;28;20228;-72
2023/01/05 01:08:45;;;;;;;1.47;0.83;;;14.10;41.60;;;;;;10465459;28;20286;-72
2023/01/05 01:13:48;;;;;;;0.80;0.80;;;14.10;41.70;;;;;;10452356;28;20236;-69
2023/01/05 01:18:51;;;;;;;0.80;0.80;;;14.10;41.70;;;;;;10446960;28;20851;-68
2023/01/05 01:23:57;;;;;;;0.80;0.80;;;14.10;41.60;;;;;;10451058;28;20228;-69
2023/01/05 01:29:00;;;;;;;1.00;1.00;;;14.10;41.60;;;;;;10438969;28;20241;-68
2023/01/05 01:34:03;;;;;;;1.00;1.00;;;14.10;41.60;;;;;;10445794;28;20244;-69
2023/01/05 01:39:08;;;;;;;2.67;0.80;;;14.10;42.40;;;;;;10446657;28;20609;-69
2023/01/05 01:44:50;;;;;;;0.80;0.80;;;14.10;41.90;;;;;;10446311;28;20225;-68
2023/01/05 01:49:55;;;;;;;0.80;0.80;;;14.10;41.90;;;;;;10441694;28;20244;-69
2023/01/05 01:55:02;;;;;;;1.37;0.67;;;14.10;42.00;;;;;;10442377;28;20236;-69
2023/01/05 02:00:08;;;;;;;1.47;0.70;;;14.10;42.20;;;;;;10448251;28;20236;-68
2023/01/05 02:05:13;;;;;;;0.70;0.70;;;14.10;42.20;;;;;;10450444;28;20240;-69
2023/01/05 02:10:29;;;;;;;0.70;0.70;;;14.10;42.20;;;;;;10444647;28;20274;-69
2023/01/05 02:15:40;;;;;;;0.60;0.60;;;14.10;42.20;;;;;;10444720;28;20725;-69
2023/01/05 02:21:04;;;;;;;1.17;0.80;;;14.10;42.20;;;;;;10435879;28;20236;-69
2023/01/05 02:27:01;;;;;;;1.23;0.80;;;14.10;42.20;;;;;;10440280;28;20224;-68
2023/01/05 02:32:13;;;;;;;0.70;0.70;;;14.10;42.10;;;;;;10317784;28;20808;-69
2023/01/05 02:37:24;;;;;;;0.70;0.70;;;14.20;42.20;;;;;;10416579;28;20256;-69
2023/01/05 02:42:31;;;;;;;0.80;0.80;;;14.20;42.20;;;;;;10445717;28;20279;-69
2023/01/05 02:47:41;;;;;;;0.70;0.70;;;14.20;42.20;;;;;;10444837;28;20570;-69
2023/01/05 02:52:51;;;;;;;0.70;0.70;;;14.10;42.20;;;;;;10444868;28;20303;-66
2023/01/05 02:57:59;;;;;;;0.70;0.70;;;14.10;42.40;;;;;;10439160;28;20221;-67
2023/01/05 03:03:10;;;;;;;1.00;0.70;;;14.10;42.50;;;;;;10442645;28;20241;-67
2023/01/05 03:08:20;;;;;;;0.70;0.70;;;14.10;42.60;;;;;;10449279;28;20273;-67
2023/01/05 03:13:43;;;;;;;0.57;0.57;;;14.10;42.70;;;;;;10443344;28;20236;-69
2023/01/05 03:40:24;;;;;;;0.70;0.67;;;14.30;42.90;;;;;;10436320;28;20236;-68
2023/01/05 03:45:34;;;;;;;0.70;0.70;;;14.30;43.00;;;;;;10445933;28;20850;-68
2023/01/05 03:50:38;;;;;;;0.70;0.70;;;14.30;43.20;;;;;;10435344;28;20232;-68
2023/01/05 03:55:42;;;;;;;0.50;0.50;;;14.40;43.00;;;;;;10439214;28;20235;-68
2023/01/05 04:00:45;;;;;;;2.30;0.73;;;14.40;42.80;;;;;;10427777;28;20324;-69
2023/01/05 04:05:49;;;;;;;0.67;0.60;;;14.40;42.90;;;;;;10431870;28;20907;-69
2023/01/05 04:10:53;;;;;;;0.67;0.67;;;14.30;43.10;;;;;;10438267;28;20613;-69
2023/01/05 04:15:56;;;;;;;0.60;0.60;;;14.30;43.20;;;;;;10434324;28;20232;-67
2023/01/05 04:21:00;;;;;;;0.70;0.70;;;14.30;43.20;;;;;;10439926;28;20248;-66
2023/01/05 04:26:04;;;;;;;0.93;0.60;;;14.20;43.60;;;;;;10438083;28;20221;-67
2023/01/05 04:31:07;;;;;;;0.50;0.50;;;14.20;43.20;;;;;;10437586;28;20247;-67
2023/01/05 04:36:12;;;;;;;0.50;0.50;;;14.20;43.50;;;;;;10448259;28;20237;-67
2023/01/05 04:41:15;;;;;;;0.50;0.50;;;14.20;43.60;;;;;;10445509;28;20585;-67
2023/01/05 04:46:18;;;;;;;0.43;0.43;;;14.20;43.60;;;;;;10438561;28;20224;-67
2023/01/05 04:51:23;;;;;;;0.57;0.57;;;14.20;43.60;;;;;;10441132;28;20238;-67
2023/01/05 04:56:26;;;;;;;0.50;0.50;;;14.20;43.60;;;;;;10443946;28;20707;-67
2023/01/05 05:01:29;;;;;;;0.70;0.50;;;14.20;43.60;;;;;;10439923;28;20612;-66
2023/01/05 05:06:34;;;;;;;0.40;0.40;;;14.20;43.60;;;;;;10433831;28;20233;-67
2023/01/05 05:11:37;;;;;;;0.50;0.50;;;14.20;43.70;;;;;;10444245;28;20237;-67
2023/01/05 05:16:40;;;;;;;0.50;0.50;;;14.20;43.60;;;;;;10437066;28;20225;-67
2023/01/05 05:21:44;;;;;;;1.00;0.50;;;14.20;43.60;;;;;;10432393;28;20236;-66
2023/01/05 05:26:48;;;;;;;0.50;0.50;;;14.20;43.70;;;;;;10433286;28;20912;-67
2023/01/05 05:31:51;;;;;;;0.40;0.40;;;14.10;43.60;;;;;;10452973;28;20610;-67
2023/01/05 05:36:55;;;;;;;0.50;0.50;;;14.10;43.60;;;;;;10447498;28;20318;-67
2023/01/05 05:41:58;;;;;;;0.60;0.60;;;14.10;43.60;;;;;;10437131;28;20237;-66
2023/01/05 05:47:02;;;;;;;0.50;0.50;;;14.10;43.60;;;;;;10436949;28;20582;-69
2023/01/05 05:52:06;;;;;;;0.60;0.60;;;14.10;43.60;;;;;;10439035;28;20237;-66
2023/01/05 05:57:09;;;;;;;0.60;0.60;;;14.20;43.60;;;;;;10442580;28;20237;-67
2023/01/05 06:02:13;;;;;;;0.40;0.40;;;14.20;43.60;;;;;;10438740;28;20251;-69
2023/01/05 06:07:17;;;;;;;0.50;0.50;;;14.10;43.60;;;;;;10437152;28;20764;-68
2023/01/05 06:12:20;;;;;;;0.40;0.40;;;14.10;43.80;;;;;;10434726;28;20232;-68
2023/01/05 06:17:23;;;;;;;0.60;0.60;;;14.00;43.70;;;;;;10429116;28;20229;-68
2023/01/05 06:22:28;;;;;;;0.70;0.70;;;14.00;43.60;;;;;;10442707;28;20287;-68
2023/01/05 06:27:31;;;;;;;0.60;0.60;;;14.00;44.90;;;;;;10437095;28;20229;-68
2023/01/05 06:32:34;;;;;;;0.50;0.50;;;14.00;44.10;;;;;;10430986;28;20244;-69
2023/01/05 06:37:39;;;;;;;0.50;0.50;;;13.90;43.90;;;;;;10439942;28;20737;-68
2023/01/05 06:42:42;;;;;;;0.60;0.60;;;13.90;44.50;;;;;;10438696;28;20233;-69
2023/01/05 06:47:46;;;;;;;0.50;0.50;;;13.90;44.40;;;;;;10442203;28;20877;-68
2023/01/05 06:52:50;;;;;;;0.60;0.60;;;13.90;44.50;;;;;;10438152;28;20282;-66
2023/01/05 06:57:53;;;;;;;0.60;0.60;;;13.90;44.80;;;;;;10440949;28;20229;-66
2023/01/05 07:03:03;;;;;;;0.80;0.80;;;13.90;44.60;;;;;;10434928;28;20237;-67
2023/01/05 07:08:07;;;;;;;1.03;0.90;;;13.80;44.60;;;;;;10439317;28;20245;-67
2023/01/05 07:13:10;;;;;;;0.80;0.80;;;13.80;45.20;;;;;;10431404;28;20233;-67
2023/01/05 07:18:13;;;;;;;1.23;1.00;;;13.80;44.90;;;;;;10433093;28;20238;-67
2023/01/05 07:23:19;;;;;;;0.80;0.80;;;13.80;45.20;;;;;;10440161;28;20240;-67
2023/01/05 07:28:22;;;;;;;0.70;0.70;;;13.80;45.20;;;;;;10452386;28;21005;-67
2023/01/05 07:33:25;;;;;;;0.70;0.70;;;13.80;45.20;;;;;;10450579;28;20233;-67
2023/01/05 07:38:30;;;;;;;0.80;0.80;;;13.70;45.30;;;;;;10439956;28;20241;-67
2023/01/05 07:43:34;;;;;;;0.60;0.60;;;13.70;46.00;;;;;;10447505;28;20853;-69
2023/01/05 07:48:40;;;;;;;0.87;0.70;;;13.70;45.60;;;;;;10437323;28;20236;-69
2023/01/05 07:53:45;;;;;;;0.67;0.67;;;13.70;45.70;;;;;;10436320;28;20906;-67
2023/01/05 07:58:48;;;;;;;1.10;1.10;;;13.80;46.20;;;;;;10452907;28;20232;-69
2023/01/05 08:03:51;;;;;;;0.70;0.70;;;13.80;45.90;;;;;;10436220;28;20252;-67
2023/01/05 08:08:56;;;;;;;0.63;0.63;;;13.80;45.80;;;;;;10453505;28;20255;-69
2023/01/05 08:13:59;;;;;;;0.70;0.70;;;13.80;46.20;;;;;;10450371;28;20283;-69
2023/01/05 08:19:03;;;;;;;0.60;0.60;;;13.80;46.00;;;;;;10448481;28;20228;-72
2023/01/05 08:24:14;;;;;;;1.27;1.17;;;13.80;46.10;;;;;;10456975;28;20229;-67
2023/01/05 08:29:17;;;;;;;0.60;0.60;;;13.80;46.40;;;;;;10443605;28;20236;-69
2023/01/05 08:34:21;;;;;;;0.83;0.83;;;13.70;46.20;;;;;;10451508;28;20224;-67
2023/01/05 08:39:25;;;;;;;1.23;0.87;;;13.70;46.20;;;;;;10454023;28;20726;-73
2023/01/05 08:44:28;;;;;;;1.27;0.83;;;13.60;46.60;;;;;;10457636;28;20289;-73
2023/01/05 08:49:31;;;;;;;1.67;1.30;;;13.60;46.00;;;;;;10451255;28;20241;-73
2023/01/05 08:54:36;;;;;;;2.00;1.40;;;13.60;46.10;;;;;;10451709;28;20229;-73
2023/01/05 08:59:39;;;;;;;1.67;1.50;;;13.50;46.20;;;;;;10447451;28;20580;-68
2023/01/05 09:04:42;;;;;;;2.93;1.00;;;13.50;45.80;;;;;;10433749;28;20232;-70
2023/01/05 09:09:47;;;;;;;3.90;1.50;;;13.50;45.60;;;;;;10450404;28;20231;-70
2023/01/05 09:14:50;;;;;;;4.07;1.50;;;13.40;45.40;;;;;;10435227;28;20313;-69
2023/01/05 09:19:53;;;;;;;2.80;1.30;;;13.40;45.20;;;;;;10437601;28;20715;-70
2023/01/05 09:24:58;;;;;;;3.67;1.57;;;13.30;45.10;;;;;;10448397;28;20271;-73
2023/01/05 09:30:01;;;;;;;3.10;1.50;;;13.30;45.40;;;;;;10451880;28;20237;-73
2023/01/05 09:35:04;;;;;;;4.13;1.50;;;13.30;45.10;;;;;;10453491;28;20259;-73
2023/01/05 09:40:12;;;;;;;4.47;1.20;;;13.30;45.00;;;;;;10429998;28;20240;-69
2023/01/05 09:45:24;;;;;;;3.20;1.23;;;13.30;45.10;;;;;;10439190;28;20233;-69
2023/01/05 09:50:30;;;;;;;3.17;1.47;;;13.30;45.40;;;;;;10436191;28;20235;-67
2023/01/05 09:55:36;;;;;;;4.20;1.50;;;13.30;45.40;;;;;;10441883;28;20315;-67
2023/01/05 10:00:43;;;;;;;2.53;1.40;;;13.30;45.40;;;;;;10435344;28;20236;-67
2023/01/05 10:05:48;;;;;;;3.63;1.53;;;13.40;45.30;;;;;;10435984;28;20221;-67
2023/01/05 10:16:23;;;;;;;9.80;4.50;;;13.40;45.40;;;;;;10437298;28;20832;-67
2023/01/05 10:21:42;;;;;;;10.20;6.10;;;13.40;45.00;;;;;;10444911;28;20233;-67
2023/01/05 10:26:54;;;;;;;5.90;2.83;;;13.40;45.20;;;;;;10437068;28;20278;-67
2023/01/05 10:32:24;;;;;;;4.73;1.93;;;13.40;45.30;;;;;;10443815;28;20320;-73
2023/01/05 10:37:52;;;;;;;2.47;1.60;;;13.40;45.40;;;;;;10438170;28;20290;-73
2023/01/05 10:43:15;;;;;;;2.77;1.37;;;13.50;45.10;;;;;;10438017;28;20232;-69
2023/01/05 10:48:22;;;;;;;5.70;1.80;;;13.50;45.30;;;;;;10432101;28;20231;-69
2023/01/05 10:53:28;;;;;;;4.07;1.60;;;13.50;44.90;;;;;;10432919;28;20232;-69
2023/01/05 10:58:34;;;;;;;3.70;1.97;;;13.60;44.70;;;;;;10439299;28;20605;-69
2023/01/05 11:03:42;;;;;;;4.90;1.70;;;13.50;44.30;;;;;;10437658;28;20224;-69
2023/01/05 11:09:15;;;;;;;4.80;1.53;;;13.60;44.40;;;;;;10435294;28;20619;-69
2023/01/05 11:14:27;;;;;;;3.60;1.80;;;13.60;44.40;;;;;;10430303;28;21284;-69
2023/01/05 11:19:35;;;;;;;3.50;1.50;;;13.50;44.00;;;;;;10434577;28;20265;-70
2023/01/05 11:24:38;;;;;;;4.37;1.77;;;13.60;44.00;;;;;;10431050;28;20304;-70
2023/01/05 11:29:43;;;;;;;3.53;1.50;;;13.60;44.00;;;;;;10432430;28;20690;-70
2023/01/05 11:34:50;;;;;;;4.83;1.50;;;13.60;43.90;;;;;;10435694;28;20627;-70
2023/01/05 11:39:56;;;;;;;4.50;1.60;;;13.70;43.90;;;;;;10439166;28;20237;-68
2023/01/05 11:45:03;;;;;;;3.63;1.50;;;13.70;43.80;;;;;;10445503;28;20233;-68
2023/01/05 11:50:17;;;;;;;6.20;1.67;;;13.70;43.80;;;;;;10436605;28;20244;-68
2023/01/05 11:55:30;;;;;;;7.03;3.10;;;13.70;43.70;;;;;;10430531;28;20225;-68
2023/01/05 12:00:45;;;;;;;5.53;2.00;;;13.80;43.90;;;;;;10430815;28;20261;-68
2023/01/05 12:05:51;;;;;;;5.33;2.40;;;13.80;44.00;;;;;;10433930;28;20589;-68
2023/01/05 12:11:05;;;;;;;5.20;1.93;;;13.80;43.50;;;;;;10440298;28;20275;-69
2023/01/05 12:16:21;;;;;;;5.73;2.20;;;13.80;43.70;;;;;;10443101;28;20226;-69
2023/01/05 12:21:27;;;;;;;4.80;2.03;;;13.90;43.40;;;;;;10440696;28;20317;-68
2023/01/05 12:26:38;;;;;;;4.60;1.67;;;13.90;43.40;;;;;;10439344;28;20704;-68
2023/01/05 12:32:04;;;;;;;4.43;1.70;;;13.90;43.40;;;;;;10438496;28;20228;-69
2023/01/05 12:37:38;;;;;;;3.77;1.73;;;13.90;43.40;;;;;;10427202;28;20232;-69
2023/01/05 12:43:04;;;;;;;4.77;1.73;;;13.90;43.40;;;;;;10425626;28;20931;-69
2023/01/05 12:48:15;;;;;;;4.07;1.60;;;13.90;43.40;;;;;;10438140;28;20240;-70
2023/01/05 12:53:29;;;;;;;4.70;2.10;;;13.90;42.40;;;;;;10441846;28;20240;-69
2023/01/05 12:58:36;;;;;;;5.40;2.20;;;13.80;43.00;;;;;;10440194;28;20246;-69
2023/01/05 13:03:47;;;;;;;5.20;1.87;;;13.80;42.80;;;;;;10445943;28;20905;-71
2023/01/05 13:08:55;;;;;;;4.47;1.90;;;13.80;42.20;;;;;;10442160;28;20704;-67
2023/01/05 13:14:03;;;;;;;8.97;2.70;;;13.80;42.10;;;;;;10446285;28;20240;-67
2023/01/05 13:19:17;;;;;;;7.57;2.73;;;13.70;42.30;;;;;;10440288;28;20728;-67
2023/01/05 13:24:28;;;;;;;8.03;4.17;;;13.70;41.70;;;;;;10440410;28;20228;-67
2023/01/05 13:29:35;;;;;;;9.07;5.40;;;13.70;42.10;;;;;;10441216;28;20239;-67
2023/01/05 13:35:21;;;;;;;11.60;5.60;;;13.70;42.20;;;;;;10442403;28;20240;-66
2023/01/05 13:40:44;;;;;;;7.90;3.97;;;13.70;41.30;;;;;;10444539;28;20738;-66
2023/01/05 13:46:13;;;;;;;6.63;2.70;;;13.70;41.80;;;;;;10446741;28;20224;-67
2023/01/05 13:51:39;;;;;;;7.93;2.40;;;13.70;41.40;;;;;;10436610;28;20229;-68
2023/01/05 13:56:45;;;;;;;8.13;3.33;;;13.70;41.40;;;;;;10446567;28;20229;-69
2023/01/05 14:01:49;;;;;;;7.77;2.40;;;13.70;42.00;;;;;;10443949;28;20712;-67
2023/01/05 14:06:56;;;;;;;8.80;2.57;;;13.80;41.60;;;;;;10443262;28;20261;-68
2023/01/05 14:12:25;;;;;;;5.40;2.20;;;13.80;41.30;;;;;;10437723;28;20244;-68
2023/01/05 14:17:51;;;;;;;8.83;2.40;;;13.80;40.60;;;;;;10410740;28;20236;-68
2023/01/05 14:22:56;;;;;;;7.97;2.40;;;13.70;40.40;;;;;;10448330;28;20612;-68
2023/01/05 14:28:39;;;;;;;9.23;2.80;;;13.60;40.90;;;;;;10438363;28;20231;-68
2023/01/05 14:33:48;;;;;;;9.67;4.00;;;13.60;40.90;;;;;;10448579;28;20275;-68
2023/01/05 14:38:53;;;;;;;7.80;3.00;;;13.60;41.10;;;;;;10433489;28;20225;-70
2023/01/05 14:44:00;;;;;;;5.70;2.13;;;13.50;41.50;;;;;;10432251;28;20228;-69
2023/01/05 14:49:06;;;;;;;5.13;1.83;;;13.60;41.50;;;;;;10439325;28;20247;-69
2023/01/05 14:54:11;;;;;;;8.23;2.23;;;13.60;41.50;;;;;;10433039;28;20725;-71
2023/01/05 14:59:22;;;;;;;4.90;1.83;;;13.70;41.30;;;;;;10429332;28;20314;-69
2023/01/05 15:04:29;;;;;;;6.07;1.87;;;13.70;41.10;;;;;;10433872;28;20258;-69
2023/01/05 15:09:47;;;;;;;8.13;2.30;;;13.70;41.00;;;;;;10439261;28;20250;-69
2023/01/05 15:15:19;;;;;;;5.97;1.93;;;13.60;40.70;;;;;;10436497;28;20224;-70
2023/01/05 15:20:35;;;;;;;7.30;2.63;;;13.50;40.70;;;;;;10436016;28;20277;-68
2023/01/05 15:26:03;;;;;;;5.23;1.77;;;13.50;40.90;;;;;;10437831;28;20232;-69
2023/01/05 15:31:36;;;;;;;5.83;2.20;;;13.50;40.80;;;;;;10423467;28;20230;-69
2023/01/05 15:36:46;;;;;;;4.30;1.77;;;13.50;40.70;;;;;;10432473;28;20595;-69
2023/01/05 15:41:51;;;;;;;9.67;2.27;;;13.50;41.20;;;;;;10429436;28;20232;-69
2023/01/05 15:46:55;;;;;;;6.90;1.97;;;13.50;41.00;;;;;;10434737;28;20243;-69
2023/01/05 15:51:58;;;;;;;7.80;2.13;;;13.50;41.50;;;;;;10429062;28;20229;-69
2023/01/05 15:57:03;;;;;;;6.50;2.03;;;13.50;41.50;;;;;;10433140;28;20232;-69
2023/01/05 16:02:16;;;;;;;6.93;2.20;;;13.50;41.50;;;;;;10435600;28;20237;-69
2023/01/05 16:07:20;;;;;;;4.87;1.97;;;13.50;41.00;;;;;;10433471;28;20859;-69
2023/01/05 16:12:25;;;;;;;8.03;2.40;;;13.50;41.30;;;;;;10430329;28;20237;-69
2023/01/05 16:17:31;;;;;;;7.03;2.07;;;13.50;41.20;;;;;;10429726;28;20800;-71
2023/01/05 16:22:42;;;;;;;8.33;2.20;;;13.40;41.50;;;;;;10432414;28;20330;-70
2023/01/05 16:27:50;;;;;;;5.87;2.23;;;13.40;41.40;;;;;;10445323;28;20225;-71
2023/01/05 16:32:57;;;;;;;7.20;1.97;;;13.40;41.50;;;;;;10443625;28;20233;-71
2023/01/05 16:38:24;;;;;;;8.40;2.30;;;13.40;41.50;;;;;;10444702;28;20229;-71
2023/01/05 16:43:33;;;;;;;8.10;1.90;;;13.40;41.50;;;;;;10433599;28;20233;-68
2023/01/05 16:48:48;;;;;;;6.30;2.30;;;13.30;41.90;;;;;;10440438;28;20251;-67
2023/01/05 16:53:54;;;;;;;8.10;2.67;;;13.30;41.30;;;;;;10445059;28;20229;-74
2023/01/05 16:58:59;;;;;;;8.00;2.87;;;13.30;41.60;;;;;;10448716;28;20266;-74
2023/01/05 17:04:10;;;;;;;6.13;2.20;;;13.30;41.50;;;;;;10443014;28;20791;-72
2023/01/05 17:09:20;;;;;;;6.97;2.00;;;13.30;41.40;;;;;;10444343;28;20826;-73
2023/01/05 17:14:25;;;;;;;7.27;2.50;;;13.30;41.50;;;;;;10452021;28;20232;-67
2023/01/05 17:19:29;;;;;;;5.97;2.33;;;13.30;41.60;;;;;;10442182;28;20273;-67
2023/01/05 17:24:32;;;;;;;6.27;3.00;;;13.30;41.60;;;;;;10439868;28;20225;-67
2023/01/05 17:29:37;;;;;;;7.83;2.90;;;13.30;41.70;;;;;;10443357;28;20274;-67
2023/01/05 17:34:41;;;;;;;6.33;2.57;;;13.30;41.70;;;;;;10443872;28;20235;-67
2023/01/05 17:39:44;;;;;;;5.13;2.30;;;13.20;41.60;;;;;;10445147;28;20222;-68
2023/01/05 17:44:50;;;;;;;5.60;2.60;;;13.20;41.60;;;;;;10443622;28;20270;-67
2023/01/05 17:49:53;;;;;;;7.50;2.50;;;13.20;41.70;;;;;;10441066;28;20225;-67
2023/01/05 17:54:56;;;;;;;6.27;2.13;;;13.20;41.60;;;;;;10440505;28;21213;-74
2023/01/05 18:00:01;;;;;;;5.43;2.20;;;13.20;41.70;;;;;;10442087;28;20744;-73
2023/01/05 18:05:05;;;;;;;5.60;2.10;;;13.20;41.80;;;;;;10437598;28;20226;-75
2023/01/05 18:10:11;;;;;;;7.53;2.43;;;13.20;41.60;;;;;;10437852;28;20228;-71
2023/01/05 18:15:16;;;;;;;6.33;2.00;;;13.20;41.50;;;;;;10439549;28;20237;-70
2023/01/05 18:20:19;;;;;;;5.00;2.10;;;13.20;41.60;;;;;;10435192;28;20233;-67
2023/01/05 18:25:24;;;;;;;6.33;2.23;;;13.20;41.70;;;;;;10447732;28;20282;-67
2023/01/05 18:30:28;;;;;;;6.27;2.80;;;13.20;41.70;;;;;;10439084;28;20231;-69
2023/01/05 18:35:32;;;;;;;7.57;2.93;;;13.20;41.70;;;;;;10444285;28;20236;-68
2023/01/05 18:40:38;;;;;;;6.47;2.67;;;13.20;41.60;;;;;;10442852;28;20228;-73
2023/01/05 18:45:42;;;;;;;6.10;2.53;;;13.20;41.60;;;;;;10435296;28;20682;-71
2023/01/05 18:50:49;;;;;;;8.33;3.27;;;13.20;41.40;;;;;;10442205;28;20233;-70
2023/01/05 18:55:53;;;;;;;7.07;2.70;;;13.20;41.40;;;;;;10439820;28;20229;-70
2023/01/05 19:00:57;;;;;;;5.63;2.40;;;13.20;41.50;;;;;;10436359;28;20966;-67
2023/01/05 19:06:05;;;;;;;7.23;3.10;;;13.10;41.30;;;;;;10441703;28;20689;-67
2023/01/05 19:11:13;;;;;;;8.13;2.90;;;13.10;41.30;;;;;;10433067;28;20320;-68
2023/01/05 19:16:19;;;;;;;6.93;2.80;;;13.10;41.30;;;;;;10443734;28;20246;-68
2023/01/05 19:21:23;;;;;;;5.30;2.60;;;13.10;41.60;;;;;;10440972;28;20246;-70
2023/01/05 19:26:30;;;;;;;7.97;3.63;;;13.00;41.40;;;;;;10449096;28;20885;-70
2023/01/05 19:31:35;;;;;;;8.10;3.03;;;13.00;41.50;;;;;;10432488;28;20610;-73
2023/01/05 19:36:38;;;;;;;6.43;2.90;;;13.00;41.50;;;;;;10434681;28;20263;-73
2023/01/05 19:41:44;;;;;;;5.50;2.73;;;13.00;41.50;;;;;;10438701;28;20728;-73
2023/01/05 19:46:52;;;;;;;11.27;6.07;;;13.00;41.50;;;;;;10436814;28;20248;-73
2023/01/05 19:51:55;;;;;;;7.53;3.50;;;13.00;41.40;;;;;;10438684;28;20232;-73
2023/01/05 19:56:58;;;;;;;8.47;3.13;;;13.00;41.30;;;;;;10430556;28;20229;-73
2023/01/05 20:02:05;;;;;;;7.63;3.50;;;12.90;41.30;;;;;;10437943;28;20922;-70
2023/01/05 20:07:09;;;;;;;7.23;3.40;;;12.90;41.30;;;;;;10446050;28;20228;-72
2023/01/05 20:12:12;;;;;;;8.63;3.57;;;12.90;41.40;;;;;;10439725;28;20240;-67
2023/01/05 20:17:18;;;;;;;7.83;2.53;;;12.80;41.40;;;;;;10448112;28;20312;-67
2023/01/05 20:22:22;;;;;;;6.17;3.27;;;12.80;41.40;;;;;;10439052;28;20248;-69
2023/01/05 20:27:25;;;;;;;6.27;2.70;;;12.70;41.40;;;;;;10447123;28;20232;-69
2023/01/05 20:32:29;;;;;;;6.67;2.87;;;12.70;41.50;;;;;;10443824;28;20240;-68
2023/01/05 20:37:33;;;;;;;7.47;2.70;;;12.70;41.50;;;;;;10444123;28;20234;-68
2023/01/05 20:42:37;;;;;;;5.40;2.60;;;12.70;41.70;;;;;;10431398;28;21047;-67
2023/01/05 20:47:41;;;;;;;4.87;2.57;;;12.70;41.70;;;;;;10444557;28;20649;-67
2023/01/05 20:52:49;;;;;;;4.90;2.40;;;12.70;42.00;;;;;;10442105;28;20225;-67
2023/01/05 20:57:52;;;;;;;5.47;2.50;;;12.70;42.00;;;;;;10429636;28;20228;-73
2023/01/05 21:02:57;;;;;;;6.50;2.30;;;12.70;42.00;;;;;;10439637;28;20240;-73
2023/01/05 21:08:00;;;;;;;4.60;2.07;;;12.70;42.30;;;;;;10442289;28;20742;-73
2023/01/05 21:13:03;;;;;;;2.93;2.30;;;12.70;42.30;;;;;;10433714;28;20241;-72
2023/01/05 21:18:28;;;;;;;9.37;3.43;;;12.80;42.40;;;;;;10440103;28;20348;-73
2023/01/05 21:23:31;;;;;;;4.50;2.83;;;12.80;42.40;;;;;;10442761;28;20229;-73
2023/01/05 21:28:34;;;;;;;6.40;2.70;;;12.80;42.40;;;;;;10434966;28;20224;-73
2023/01/05 21:33:39;;;;;;;6.30;2.70;;;12.80;42.30;;;;;;10440800;28;20228;-73
2023/01/05 21:38:43;;;;;;;5.03;2.40;;;12.80;42.20;;;;;;10443991;28;20239;-74
2023/01/05 21:44:06;;;;;;;6.03;2.70;;;12.90;41.90;;;;;;10435860;28;20260;-73
2023/01/05 21:49:11;;;;;;;4.87;2.40;;;12.90;41.90;;;;;;10440298;28;20327;-69
2023/01/05 21:59:36;;;;;;;5.90;2.70;;;12.80;42.00;;;;;;10436496;28;20810;-73
2023/01/05 22:04:41;;;;;;;6.47;2.93;;;12.80;42.30;;;;;;10445236;28;20762;-67
2023/01/05 22:09:44;;;;;;;5.90;3.77;;;12.70;42.30;;;;;;10432004;28;20244;-68
2023/01/05 22:14:47;;;;;;;6.47;2.90;;;12.70;42.20;;;;;;10438340;28;20232;-69
2023/01/05 22:19:52;;;;;;;3.97;2.70;;;12.60;41.70;;;;;;10436768;28;20228;-69
2023/01/05 22:24:55;;;;;;;4.87;3.10;;;12.60;41.90;;;;;;10439159;28;20284;-73
2023/01/05 22:29:58;;;;;;;4.10;2.40;;;12.50;42.10;;;;;;10435992;28;20243;-73
2023/01/05 22:35:04;;;;;;;6.20;3.33;;;12.50;42.00;;;;;;10432166;28;20877;-72
2023/01/05 22:40:09;;;;;;;7.67;5.80;;;12.50;42.10;;;;;;10439017;28;21038;-72
2023/01/05 22:45:12;;;;;;;6.47;4.60;;;12.50;41.90;;;;;;10426711;28;20292;-73
2023/01/05 22:50:17;;;;;;;7.50;4.17;;;12.40;42.00;;;;;;10430307;28;20233;-73
2023/01/05 22:55:20;;;;;;;7.77;4.33;;;12.40;42.00;;;;;;10445711;28;20232;-73
2023/01/05 23:00:24;;;;;;;7.53;4.50;;;12.30;42.00;;;;;;10435043;28;20237;-73
2023/01/05 23:05:28;;;;;;;7.70;4.50;;;12.30;42.00;;;;;;10444404;28;20229;-67
2023/01/05 23:10:31;;;;;;;8.80;4.73;;;12.30;42.00;;;;;;10440349;28;20276;-68
2023/01/05 23:15:35;;;;;;;5.97;4.50;;;12.30;42.00;;;;;;10449278;28;20247;-74
2023/01/05 23:20:39;;;;;;;9.60;6.27;;;12.20;41.90;;;;;;10435177;28;20317;-73
2023/01/05 23:25:45;;;;;;;11.70;7.90;;;12.30;42.70;;;;;;10441318;28;20232;-67
2023/01/05 23:30:49;;;;;;;12.70;9.27;;;12.20;41.90;;;;;;10441543;28;20239;-67
2023/01/05 23:35:55;;;;;;;6.73;5.20;;;12.20;41.90;;;;;;10440244;28;20232;-67
2023/01/05 23:40:59;;;;;;;7.43;4.87;;;12.20;42.10;;;;;;10433950;28;20232;-67
2023/01/05 23:46:04;;;;;;;10.90;6.20;;;12.20;42.00;;;;;;10437132;28;20236;-69
2023/01/05 23:51:12;;;;;;;7.17;5.40;;;12.20;42.20;;;;;;10443693;28;20331;-70
2023/01/05 23:56:17;;;;;;;7.70;4.83;;;12.20;42.20;;;;;;10447129;28;20351;-71
